Time;durP1;ratioP1;P1;durP2;ratioP2;P2;SDS_P1;SDS_P2;PMS_P1;PMS_P2;Temp;Humidity;BMP_temperature;BMP_pressure;BME280_temperature;BME280_humidity;BME280_pressure;Samples;Min_cycle;Max_cycle;Signal;HPM_P1;HPM_P2
2023/08/16 00:01:41;;;;;;;12.75;9.50;;;19.30;99.90;;;;;;5073069;28;20063;-75
2023/08/16 00:04:07;;;;;;;12.63;9.90;;;19.20;99.90;;;;;;5072879;28;20017;-75
2023/08/16 00:06:33;;;;;;;10.13;9.15;;;19.20;99.90;;;;;;5072206;28;20025;-74
2023/08/16 00:08:58;;;;;;;9.13;8.23;;;19.20;99.90;;;;;;5072696;28;20028;-77
2023/08/16 00:11:27;;;;;;;9.63;8.60;;;19.30;99.90;;;;;;5071778;28;20017;-75
2023/08/16 00:13:53;;;;;;;10.18;8.35;;;19.20;99.90;;;;;;5072484;28;20017;-77
2023/08/16 00:16:19;;;;;;;13.63;9.27;;;19.30;99.90;;;;;;5071148;28;20059;-74
2023/08/16 00:18:44;;;;;;;11.05;8.25;;;19.30;99.90;;;;;;5069011;28;20048;-74
2023/08/16 00:21:10;;;;;;;11.50;9.20;;;19.30;99.90;;;;;;5071457;28;20025;-74
2023/08/16 00:23:35;;;;;;;11.60;9.63;;;19.40;99.90;;;;;;5071313;28;20029;-77
2023/08/16 00:26:01;;;;;;;9.63;8.63;;;19.40;99.90;;;;;;5071439;28;20229;-76
2023/08/16 00:28:27;;;;;;;13.40;9.68;;;19.40;99.90;;;;;;5072700;28;21628;-77
2023/08/16 00:30:56;;;;;;;9.98;8.98;;;19.40;99.90;;;;;;5072766;28;20027;-74
2023/08/16 00:33:22;;;;;;;10.13;9.00;;;19.40;99.90;;;;;;5069006;28;20020;-74
2023/08/16 00:35:48;;;;;;;9.80;8.68;;;19.30;99.90;;;;;;5071478;28;20152;-77
2023/08/16 00:38:14;;;;;;;11.02;8.52;;;19.30;99.90;;;;;;5072645;28;20028;-74
2023/08/16 00:40:39;;;;;;;11.25;8.85;;;19.30;99.90;;;;;;5072566;28;20024;-74
2023/08/16 00:43:05;;;;;;;9.88;8.40;;;19.30;99.90;;;;;;5070921;28;20043;-75
2023/08/16 00:45:31;;;;;;;10.13;8.38;;;19.30;99.90;;;;;;5072467;28;20032;-72
2023/08/16 00:47:57;;;;;;;9.50;8.55;;;19.30;99.90;;;;;;5072388;28;20028;-74
2023/08/16 00:50:24;;;;;;;13.25;8.80;;;19.30;99.90;;;;;;5072543;28;20098;-74
2023/08/16 00:52:52;;;;;;;9.77;8.77;;;19.30;99.90;;;;;;5071333;28;20533;-72
2023/08/16 00:55:18;;;;;;;8.48;7.68;;;19.30;99.90;;;;;;5072275;28;20111;-72
2023/08/16 00:57:44;;;;;;;11.38;8.38;;;19.30;99.90;;;;;;5071262;28;20040;-73
2023/08/16 01:00:10;;;;;;;9.38;8.43;;;19.20;99.90;;;;;;5072256;28;20024;-72
2023/08/16 01:02:36;;;;;;;11.70;8.82;;;19.20;99.90;;;;;;5072048;28;20071;-72
2023/08/16 01:05:03;;;;;;;9.30;8.18;;;19.20;99.90;;;;;;5072124;28;20052;-76
2023/08/16 01:07:29;;;;;;;8.27;7.50;;;19.20;99.90;;;;;;5071059;28;20066;-75
2023/08/16 01:09:55;;;;;;;10.75;8.60;;;19.20;99.90;;;;;;5072677;28;20386;-73
2023/08/16 01:12:54;;;;;;;9.65;8.73;;;19.20;99.90;;;;;;5071047;28;20521;-75
2023/08/16 01:15:30;;;;;;;11.55;10.00;;;19.20;99.90;;;;;;5072387;28;20108;-73
2023/08/16 01:17:58;;;;;;;11.32;9.82;;;19.00;99.90;;;;;;5074729;28;20031;-75
2023/08/16 01:20:26;;;;;;;10.07;9.18;;;18.90;99.90;;;;;;5081713;28;20032;-75
2023/08/16 01:22:51;;;;;;;12.82;9.60;;;18.90;99.90;;;;;;5075623;28;20066;-76
2023/08/16 01:25:31;;;;;;;10.02;8.85;;;18.90;99.90;;;;;;5076089;28;20474;-75
2023/08/16 01:27:59;;;;;;;11.45;9.10;;;18.90;99.90;;;;;;5075799;28;20031;-73
2023/08/16 01:30:25;;;;;;;11.10;9.43;;;18.90;99.90;;;;;;5075852;28;20383;-73
2023/08/16 01:32:51;;;;;;;12.70;9.70;;;18.90;99.90;;;;;;5076425;28;20020;-72
2023/08/16 01:35:17;;;;;;;11.05;9.20;;;18.80;99.90;;;;;;5074661;28;20375;-75
2023/08/16 01:37:43;;;;;;;13.32;9.80;;;18.80;99.90;;;;;;5075626;28;20025;-73
2023/08/16 01:40:09;;;;;;;10.50;8.82;;;18.80;99.90;;;;;;5079412;28;20027;-72
2023/08/16 01:42:48;;;;;;;11.90;10.63;;;18.80;99.90;;;;;;5079529;28;20123;-72
2023/08/16 01:45:17;;;;;;;11.00;9.70;;;18.80;99.90;;;;;;5075750;28;20031;-73
2023/08/16 01:47:44;;;;;;;11.10;9.38;;;18.80;99.90;;;;;;5085281;28;20037;-75
2023/08/16 01:50:09;;;;;;;12.88;10.20;;;18.80;99.90;;;;;;5073603;28;20073;-75
2023/08/16 01:52:35;;;;;;;10.10;9.00;;;18.90;99.90;;;;;;5075014;28;20012;-72
2023/08/16 01:55:01;;;;;;;14.02;10.57;;;18.90;99.90;;;;;;5077450;28;20024;-72
2023/08/16 01:57:27;;;;;;;10.77;9.68;;;18.80;99.90;;;;;;5080790;28;20017;-75
2023/08/16 01:59:53;;;;;;;10.35;9.35;;;18.80;99.90;;;;;;5075463;28;20541;-75
2023/08/16 02:02:18;;;;;;;11.35;9.90;;;18.80;99.90;;;;;;5073354;28;20442;-75
2023/08/16 02:04:44;;;;;;;10.27;9.18;;;18.80;99.90;;;;;;5075121;28;20506;-75
2023/08/16 02:07:10;;;;;;;12.93;10.10;;;18.80;99.90;;;;;;5074876;28;20112;-73
2023/08/16 02:09:35;;;;;;;12.30;9.63;;;18.80;99.90;;;;;;5075332;28;20101;-76
2023/08/16 02:12:01;;;;;;;11.13;10.02;;;18.80;99.90;;;;;;5078283;28;20111;-72
2023/08/16 02:14:26;;;;;;;11.38;10.23;;;18.80;99.90;;;;;;5075159;28;20426;-73
2023/08/16 02:16:52;;;;;;;13.10;8.98;;;18.80;99.90;;;;;;5073710;28;20049;-72
2023/08/16 02:19:17;;;;;;;11.52;10.30;;;18.80;99.90;;;;;;5079718;28;20047;-72
2023/08/16 02:21:43;;;;;;;10.77;9.75;;;18.80;99.90;;;;;;5077907;28;20482;-72
2023/08/16 02:24:09;;;;;;;12.38;9.05;;;18.80;99.90;;;;;;5074815;28;20020;-75
2023/08/16 02:26:34;;;;;;;13.40;10.20;;;18.80;99.90;;;;;;5074938;28;20023;-72
2023/08/16 02:29:00;;;;;;;10.60;9.55;;;18.80;99.90;;;;;;5073661;28;20060;-75
2023/08/16 02:31:26;;;;;;;9.65;8.65;;;18.80;99.90;;;;;;5080713;28;20040;-75
2023/08/16 02:33:52;;;;;;;11.50;9.38;;;18.80;99.90;;;;;;5079801;28;20474;-76
2023/08/16 02:36:17;;;;;;;11.40;9.88;;;18.70;99.90;;;;;;5074877;28;20021;-76
2023/08/16 02:38:43;;;;;;;11.68;8.93;;;18.70;99.90;;;;;;5074466;28;20063;-75
2023/08/16 02:41:09;;;;;;;10.02;8.80;;;18.60;99.90;;;;;;5074719;28;20486;-72
2023/08/16 02:43:34;;;;;;;12.00;10.40;;;18.60;99.90;;;;;;5079868;28;20031;-73
2023/08/16 02:46:00;;;;;;;13.40;9.95;;;18.60;99.90;;;;;;5074804;28;20021;-72
2023/08/16 02:48:25;;;;;;;10.65;9.07;;;18.60;99.90;;;;;;5072842;28;20109;-76
2023/08/16 02:50:51;;;;;;;13.55;9.70;;;18.60;99.90;;;;;;5073272;28;20394;-76
2023/08/16 02:53:17;;;;;;;9.43;8.52;;;18.50;99.90;;;;;;5085654;28;20028;-75
2023/08/16 02:55:43;;;;;;;9.00;8.20;;;18.40;99.90;;;;;;5074270;28;20516;-72
2023/08/16 02:58:08;;;;;;;9.75;8.75;;;18.30;99.90;;;;;;5073916;28;20017;-73
2023/08/16 03:00:34;;;;;;;14.55;9.75;;;18.20;99.90;;;;;;5072906;28;20038;-73
2023/08/16 03:03:00;;;;;;;13.35;9.73;;;18.10;99.90;;;;;;5078847;28;20115;-76
2023/08/16 03:05:25;;;;;;;10.98;8.82;;;18.10;99.90;;;;;;5074210;28;20070;-76
2023/08/16 03:07:52;;;;;;;12.23;9.55;;;18.00;99.90;;;;;;5073946;28;20020;-73
2023/08/16 03:10:17;;;;;;;9.23;8.23;;;18.00;99.90;;;;;;5078668;28;20039;-76
2023/08/16 03:12:43;;;;;;;11.10;8.77;;;18.00;99.90;;;;;;5079806;28;20058;-73
2023/08/16 03:15:09;;;;;;;9.35;8.10;;;18.00;99.90;;;;;;5074074;28;20029;-76
2023/08/16 03:17:34;;;;;;;9.48;8.57;;;17.90;99.90;;;;;;5073685;28;20064;-73
2023/08/16 03:20:00;;;;;;;11.05;9.95;;;17.90;99.90;;;;;;5077221;28;20137;-75
2023/08/16 03:22:26;;;;;;;9.60;8.60;;;17.90;99.90;;;;;;5072157;28;20040;-76
2023/08/16 03:24:51;;;;;;;13.10;10.05;;;17.90;99.90;;;;;;5073795;28;20588;-73
2023/08/16 03:27:17;;;;;;;10.55;9.43;;;17.90;99.90;;;;;;5073663;28;20103;-73
2023/08/16 03:29:43;;;;;;;11.35;10.15;;;17.90;99.90;;;;;;5073655;28;20028;-73
2023/08/16 03:32:09;;;;;;;10.85;9.85;;;17.90;99.90;;;;;;5084557;28;20027;-78
2023/08/16 03:34:34;;;;;;;11.77;9.13;;;17.90;99.90;;;;;;5073624;28;20023;-75
2023/08/16 03:37:00;;;;;;;12.30;9.20;;;17.90;99.90;;;;;;5072054;28;20020;-78
2023/08/16 03:39:26;;;;;;;13.15;9.15;;;17.90;99.90;;;;;;5072360;28;20020;-75
2023/08/16 03:41:52;;;;;;;14.40;9.80;;;17.90;99.90;;;;;;5073887;28;20028;-78
2023/08/16 03:44:17;;;;;;;11.63;9.80;;;18.00;99.90;;;;;;5072307;28;20027;-75
2023/08/16 03:46:43;;;;;;;17.77;10.15;;;18.00;99.90;;;;;;5072218;28;20034;-78
2023/08/16 03:49:09;;;;;;;12.57;9.57;;;18.00;99.90;;;;;;5076841;28;20031;-78
2023/08/16 03:51:35;;;;;;;10.93;9.43;;;18.00;99.90;;;;;;5079219;28;20025;-75
2023/08/16 03:54:01;;;;;;;11.63;9.52;;;18.00;99.90;;;;;;5077665;28;20469;-78
2023/08/16 03:56:28;;;;;;;11.10;9.57;;;18.10;99.90;;;;;;5078388;28;20032;-78
2023/08/16 03:58:53;;;;;;;12.60;10.68;;;18.00;99.90;;;;;;5073038;28;20074;-75
2023/08/16 04:01:19;;;;;;;10.63;9.10;;;17.90;99.90;;;;;;5077800;28;20016;-77
2023/08/16 04:03:46;;;;;;;11.35;9.43;;;18.00;99.90;;;;;;5072968;28;20024;-78
2023/08/16 04:06:12;;;;;;;16.65;9.27;;;17.90;99.90;;;;;;5073129;28;20027;-77
2023/08/16 04:08:38;;;;;;;9.90;8.90;;;18.00;99.90;;;;;;5071878;28;20028;-78
2023/08/16 04:11:04;;;;;;;13.35;10.30;;;18.00;99.90;;;;;;5081732;28;20498;-75
2023/08/16 04:13:31;;;;;;;13.10;9.45;;;18.00;99.90;;;;;;5059166;28;20024;-75
2023/08/16 04:15:56;;;;;;;14.02;10.40;;;18.00;99.90;;;;;;5072622;28;20406;-76
2023/08/16 04:18:22;;;;;;;11.55;9.88;;;18.10;99.90;;;;;;5072904;28;20020;-76
2023/08/16 04:20:48;;;;;;;13.63;10.15;;;18.10;99.90;;;;;;5075682;28;20021;-77
2023/08/16 04:23:13;;;;;;;11.15;9.57;;;18.20;99.90;;;;;;5072602;28;20056;-74
2023/08/16 04:25:39;;;;;;;11.15;8.93;;;18.30;99.90;;;;;;5072677;28;20033;-74
2023/08/16 04:28:05;;;;;;;11.00;9.88;;;18.40;99.90;;;;;;5075523;28;20481;-74
2023/08/16 04:30:31;;;;;;;12.63;9.75;;;18.40;99.90;;;;;;5078653;28;20108;-77
2023/08/16 04:32:56;;;;;;;11.05;9.95;;;18.30;99.90;;;;;;5071285;28;20135;-76
2023/08/16 04:35:23;;;;;;;11.25;10.18;;;18.30;99.90;;;;;;5072698;28;20025;-77
2023/08/16 04:37:49;;;;;;;11.52;9.38;;;18.40;99.90;;;;;;5072810;28;20100;-74
2023/08/16 04:40:15;;;;;;;14.60;9.68;;;18.50;99.90;;;;;;5075895;28;20115;-74
2023/08/16 04:42:40;;;;;;;10.85;9.60;;;18.70;99.90;;;;;;5071531;28;20091;-77
2023/08/16 04:45:06;;;;;;;14.55;9.35;;;18.90;99.90;;;;;;5071203;28;20021;-73
2023/08/16 04:47:32;;;;;;;11.57;9.63;;;19.00;99.90;;;;;;5072730;28;20020;-77
2023/08/16 04:49:58;;;;;;;11.10;9.85;;;19.10;99.90;;;;;;5072440;28;20021;-75
2023/08/16 04:52:24;;;;;;;12.52;9.93;;;19.30;99.90;;;;;;5074422;28;20127;-74
2023/08/16 04:54:50;;;;;;;11.40;9.45;;;19.50;99.90;;;;;;5075497;28;20103;-74
2023/08/16 04:57:15;;;;;;;12.10;9.65;;;19.70;99.90;;;;;;5076586;28;20417;-74
2023/08/16 04:59:41;;;;;;;10.63;8.93;;;19.90;99.90;;;;;;5075722;28;20017;-74
2023/08/16 05:02:07;;;;;;;11.07;9.43;;;20.10;99.90;;;;;;5076386;28;20047;-74
2023/08/16 05:04:33;;;;;;;13.90;9.32;;;20.20;99.90;;;;;;5078059;28;20024;-74
2023/08/16 05:06:58;;;;;;;12.23;9.20;;;20.40;99.90;;;;;;5076477;28;20028;-75
2023/08/16 05:09:24;;;;;;;15.50;10.40;;;20.50;99.90;;;;;;5076134;28;20021;-77
2023/08/16 05:11:50;;;;;;;11.52;10.32;;;20.50;99.90;;;;;;5076359;28;20107;-75
2023/08/16 05:14:15;;;;;;;15.20;11.63;;;20.50;99.90;;;;;;5085093;28;20020;-74
2023/08/16 05:16:41;;;;;;;11.15;9.82;;;20.60;99.90;;;;;;5076184;28;20044;-74
2023/08/16 05:19:06;;;;;;;11.82;10.15;;;20.60;99.90;;;;;;5063317;28;20025;-74
2023/08/16 05:21:32;;;;;;;11.82;10.30;;;20.70;99.90;;;;;;5075983;28;20017;-77
2023/08/16 05:23:57;;;;;;;13.25;10.80;;;20.80;99.90;;;;;;5079157;28;20389;-74
2023/08/16 05:26:23;;;;;;;11.45;10.25;;;21.00;99.90;;;;;;5076160;28;20103;-78
2023/08/16 05:28:49;;;;;;;16.00;10.60;;;21.10;99.90;;;;;;5075345;28;20027;-74
2023/08/16 05:31:15;;;;;;;11.18;10.07;;;21.20;99.90;;;;;;5079921;28;20024;-74
2023/08/16 05:33:41;;;;;;;14.00;11.07;;;21.30;99.90;;;;;;5083218;28;20102;-74
2023/08/16 05:36:07;;;;;;;13.05;10.10;;;21.50;99.90;;;;;;5074055;28;20022;-74
2023/08/16 05:38:33;;;;;;;12.13;10.73;;;21.60;99.90;;;;;;5073008;28;20133;-74
2023/08/16 05:41:00;;;;;;;13.25;10.98;;;21.70;99.90;;;;;;5078485;28;20460;-78
2023/08/16 05:43:25;;;;;;;12.00;10.80;;;22.00;99.90;;;;;;5074111;28;20047;-78
2023/08/16 05:45:51;;;;;;;10.88;9.73;;;22.10;99.90;;;;;;5073291;28;20493;-78
2023/08/16 05:48:17;;;;;;;11.38;10.20;;;22.30;99.90;;;;;;5073347;28;20074;-77
2023/08/16 05:50:43;;;;;;;12.32;10.38;;;22.40;99.90;;;;;;5076620;28;20038;-74
2023/08/16 05:53:09;;;;;;;11.13;9.15;;;22.60;99.90;;;;;;5075583;28;20474;-78
2023/08/16 05:55:34;;;;;;;12.52;10.07;;;22.70;99.90;;;;;;5075386;28;20048;-78
2023/08/16 05:58:00;;;;;;;11.45;9.63;;;22.80;99.90;;;;;;5077673;28;20041;-74
2023/08/16 06:00:26;;;;;;;11.30;9.88;;;22.90;99.90;;;;;;5075914;28;20013;-78
2023/08/16 06:02:52;;;;;;;11.90;10.70;;;23.00;99.90;;;;;;5074706;28;20033;-78
2023/08/16 06:05:18;;;;;;;15.07;10.98;;;23.20;99.90;;;;;;5072918;28;20066;-74
2023/08/16 06:07:44;;;;;;;13.93;10.65;;;23.20;99.90;;;;;;5083466;28;20103;-74
2023/08/16 06:10:10;;;;;;;16.55;10.45;;;23.20;99.90;;;;;;5074013;28;20032;-75
2023/08/16 06:12:36;;;;;;;12.90;10.15;;;23.30;99.90;;;;;;5075314;28;20047;-74
2023/08/16 06:15:02;;;;;;;11.45;10.43;;;23.40;99.90;;;;;;5074764;28;20020;-75
2023/08/16 06:17:28;;;;;;;12.60;11.10;;;23.50;99.90;;;;;;5076275;28;20053;-75
2023/08/16 06:19:54;;;;;;;11.88;10.80;;;23.60;99.90;;;;;;5074012;28;20503;-75
2023/08/16 06:22:21;;;;;;;11.07;9.60;;;23.70;99.90;;;;;;5073681;28;20029;-74
2023/08/16 06:24:47;;;;;;;12.27;10.48;;;23.80;99.90;;;;;;5074077;28;20063;-75
2023/08/16 06:27:12;;;;;;;16.80;11.00;;;24.00;99.90;;;;;;5074160;28;20060;-75
2023/08/16 06:29:38;;;;;;;11.77;10.15;;;24.10;99.90;;;;;;5072497;28;20436;-75
2023/08/16 06:32:04;;;;;;;11.05;9.95;;;24.20;99.90;;;;;;5076181;28;20036;-75
2023/08/16 06:34:30;;;;;;;11.13;10.02;;;24.40;99.90;;;;;;5072458;28;20410;-78
2023/08/16 06:36:56;;;;;;;11.25;10.15;;;24.50;99.90;;;;;;5073036;28;20099;-77
2023/08/16 06:39:21;;;;;;;10.50;9.38;;;24.60;99.90;;;;;;5073721;28;20028;-78
2023/08/16 06:41:48;;;;;;;15.10;10.55;;;24.90;99.90;;;;;;5081629;28;20027;-78
2023/08/16 06:44:14;;;;;;;10.80;9.75;;;25.10;99.90;;;;;;5072197;28;20025;-74
2023/08/16 06:46:39;;;;;;;11.73;10.52;;;25.30;99.90;;;;;;5072453;28;20367;-74
2023/08/16 06:49:05;;;;;;;11.25;10.13;;;25.50;99.90;;;;;;5075228;28;20059;-74
2023/08/16 06:51:31;;;;;;;15.18;9.82;;;25.60;99.90;;;;;;5069913;28;20028;-74
2023/08/16 06:53:56;;;;;;;12.80;10.32;;;25.70;99.90;;;;;;5068320;28;20047;-74
2023/08/16 06:56:22;;;;;;;11.80;10.60;;;25.90;99.90;;;;;;5071104;28;20386;-74
2023/08/16 06:58:50;;;;;;;10.27;9.25;;;26.10;99.90;;;;;;5070566;28;20498;-74
2023/08/16 07:01:16;;;;;;;9.93;9.02;;;26.20;99.90;;;;;;5071479;28;20158;-75
2023/08/16 07:03:41;;;;;;;10.23;9.20;;;26.40;99.10;;;;;;5070509;28;20131;-78
2023/08/16 07:06:07;;;;;;;9.35;8.45;;;26.50;92.80;;;;;;5071367;28;20481;-75
2023/08/16 07:08:33;;;;;;;9.63;8.35;;;26.70;83.60;;;;;;5069302;28;20028;-75
2023/08/16 07:10:59;;;;;;;8.77;7.93;;;26.80;81.90;;;;;;5072765;28;20021;-79
2023/08/16 07:13:25;;;;;;;7.50;6.90;;;27.00;78.30;;;;;;5070764;28;20059;-79
2023/08/16 07:15:51;;;;;;;9.73;8.07;;;27.00;70.80;;;;;;5072126;28;20080;-79
2023/08/16 07:18:16;;;;;;;10.35;8.43;;;27.00;69.70;;;;;;5073029;28;20016;-79
2023/08/16 07:20:44;;;;;;;10.38;7.45;;;27.20;70.10;;;;;;5072595;28;20035;-79
2023/08/16 07:23:09;;;;;;;9.88;8.13;;;27.30;70.60;;;;;;5083667;28;20033;-75
2023/08/16 07:25:35;;;;;;;9.50;7.72;;;27.30;72.40;;;;;;5072535;28;20078;-74
2023/08/16 07:28:01;;;;;;;8.55;7.75;;;27.20;70.80;;;;;;5072558;28;20111;-75
2023/08/16 07:30:26;;;;;;;10.13;8.05;;;27.10;70.40;;;;;;5070889;28;20481;-74
2023/08/16 07:32:52;;;;;;;9.38;7.55;;;27.30;69.90;;;;;;5070619;28;20029;-75
2023/08/16 07:35:18;;;;;;;8.32;7.57;;;27.40;70.30;;;;;;5071629;28;20115;-74
2023/08/16 07:37:44;;;;;;;9.25;7.65;;;27.60;68.80;;;;;;5069434;28;20039;-75
2023/08/16 07:40:10;;;;;;;8.30;7.50;;;27.60;66.20;;;;;;5073233;28;20032;-75
2023/08/16 07:42:36;;;;;;;8.57;7.72;;;27.80;67.40;;;;;;5067600;28;20116;-75
2023/08/16 07:45:03;;;;;;;9.30;8.07;;;27.90;66.20;;;;;;5067456;28;20136;-75
2023/08/16 07:47:29;;;;;;;8.20;7.35;;;28.10;68.70;;;;;;5070186;28;20017;-76
2023/08/16 07:49:54;;;;;;;9.32;7.20;;;28.10;68.00;;;;;;5081825;28;20160;-75
2023/08/16 07:52:20;;;;;;;8.30;7.45;;;28.10;67.00;;;;;;5069624;28;20024;-75
2023/08/16 07:54:46;;;;;;;8.43;7.32;;;28.20;68.40;;;;;;5071234;28;20036;-75
2023/08/16 07:57:12;;;;;;;9.05;7.68;;;28.20;65.60;;;;;;5075162;28;20021;-75
2023/08/16 07:59:39;;;;;;;7.60;6.85;;;28.40;66.60;;;;;;5070132;28;20036;-75
2023/08/16 08:02:06;;;;;;;11.07;7.53;;;28.50;65.20;;;;;;5070153;28;20029;-75
2023/08/16 08:04:35;;;;;;;9.68;7.70;;;28.70;64.40;;;;;;5064868;28;20041;-75
2023/08/16 08:07:01;;;;;;;8.30;7.43;;;28.60;63.50;;;;;;5069773;28;20502;-75
2023/08/16 08:09:27;;;;;;;9.55;7.32;;;28.70;63.80;;;;;;5070142;28;20040;-76
2023/08/16 08:11:52;;;;;;;10.65;7.50;;;28.80;63.10;;;;;;5068943;28;20027;-75
2023/08/16 08:14:18;;;;;;;9.20;7.88;;;28.90;61.40;;;;;;5070709;28;20036;-75
2023/08/16 08:16:44;;;;;;;8.00;7.30;;;29.10;62.50;;;;;;5070957;28;20049;-75
2023/08/16 08:19:10;;;;;;;7.70;6.82;;;29.00;60.50;;;;;;5073843;28;20047;-76
2023/08/16 08:21:35;;;;;;;8.50;7.53;;;29.00;58.30;;;;;;5070798;28;20059;-76
2023/08/16 08:24:01;;;;;;;9.95;7.40;;;29.20;58.40;;;;;;5059549;28;20064;-76
2023/08/16 08:26:27;;;;;;;8.32;7.43;;;29.20;58.90;;;;;;5070601;28;20037;-80
2023/08/16 08:28:52;;;;;;;9.38;8.05;;;29.40;59.60;;;;;;5071527;28;20028;-79
2023/08/16 08:31:18;;;;;;;10.15;7.53;;;29.60;58.40;;;;;;5071227;28;20035;-80
2023/08/16 08:33:47;;;;;;;11.60;8.85;;;29.40;57.80;;;;;;5069756;28;20379;-78
2023/08/16 08:36:13;;;;;;;7.57;6.88;;;29.60;58.20;;;;;;5074936;28;20453;-79
2023/08/16 08:38:39;;;;;;;7.32;6.57;;;29.70;59.20;;;;;;5071265;28;20145;-79
2023/08/16 08:41:06;;;;;;;11.63;7.32;;;29.60;56.60;;;;;;5070448;28;20025;-80
2023/08/16 08:43:36;;;;;;;8.15;7.25;;;29.60;56.10;;;;;;5071114;28;20040;-80
2023/08/16 08:46:04;;;;;;;13.48;7.85;;;29.70;56.40;;;;;;5086840;28;20040;-79
2023/08/16 08:48:30;;;;;;;9.80;7.28;;;29.70;56.70;;;;;;5070367;28;20033;-79
2023/08/16 08:50:57;;;;;;;7.95;7.07;;;29.50;57.30;;;;;;5068789;28;20866;-79
2023/08/16 08:53:24;;;;;;;6.63;6.03;;;29.80;58.70;;;;;;5072775;28;20050;-79
2023/08/16 08:55:54;;;;;;;8.85;6.20;;;30.00;57.60;;;;;;5069344;28;20051;-79
2023/08/16 08:58:21;;;;;;;6.90;6.22;;;30.10;55.80;;;;;;5066998;28;20013;-79
2023/08/16 09:00:48;;;;;;;7.38;6.60;;;30.20;55.10;;;;;;5071939;28;20020;-79
2023/08/16 09:03:18;;;;;;;8.07;6.28;;;30.50;55.70;;;;;;5071654;28;20103;-79
2023/08/16 09:05:52;;;;;;;7.18;6.47;;;30.50;54.70;;;;;;5069296;28;20056;-80
2023/08/16 09:08:20;;;;;;;7.68;6.57;;;30.50;54.90;;;;;;5071329;28;20078;-80
2023/08/16 09:10:46;;;;;;;7.32;6.57;;;30.60;55.50;;;;;;5072043;28;20021;-79
2023/08/16 09:13:12;;;;;;;8.30;5.97;;;30.70;54.40;;;;;;5071739;28;20381;-80
2023/08/16 09:15:39;;;;;;;8.85;7.43;;;30.90;55.50;;;;;;5070390;28;20128;-79
2023/08/16 09:18:06;;;;;;;7.40;6.68;;;31.00;56.00;;;;;;5070960;28;20032;-79
2023/08/16 09:20:32;;;;;;;10.57;7.25;;;31.10;54.80;;;;;;5066950;28;20046;-79
2023/08/16 09:22:57;;;;;;;7.80;7.05;;;31.20;54.90;;;;;;5070135;28;20044;-80
2023/08/16 09:25:24;;;;;;;8.82;6.68;;;31.10;54.60;;;;;;5066147;28;20017;-80
2023/08/16 09:27:52;;;;;;;6.20;5.53;;;31.20;55.00;;;;;;5068101;28;20029;-79
2023/08/16 09:30:18;;;;;;;7.80;5.88;;;31.40;52.60;;;;;;5078080;28;20100;-80
2023/08/16 09:32:47;;;;;;;6.90;6.30;;;31.40;52.20;;;;;;5068962;28;20120;-80
2023/08/16 09:35:13;;;;;;;9.43;7.00;;;31.40;52.10;;;;;;5069983;28;20021;-79
2023/08/16 09:37:41;;;;;;;9.93;6.80;;;31.50;52.60;;;;;;5070928;28;20611;-79
2023/08/16 09:40:11;;;;;;;7.53;6.78;;;31.60;52.70;;;;;;5073635;28;20112;-80
2023/08/16 09:42:36;;;;;;;6.85;6.25;;;31.50;52.10;;;;;;5070636;28;20041;-80
2023/08/16 09:45:03;;;;;;;6.82;6.13;;;31.20;51.80;;;;;;5079795;28;20535;-80
2023/08/16 09:47:30;;;;;;;6.47;5.88;;;31.10;51.90;;;;;;5073103;28;20029;-79
2023/08/16 09:50:00;;;;;;;7.85;7.13;;;31.10;52.50;;;;;;5074366;28;20377;-79
2023/08/16 09:52:29;;;;;;;7.07;6.47;;;31.20;53.10;;;;;;5074652;28;20017;-79
2023/08/16 09:54:55;;;;;;;6.93;6.32;;;31.30;54.10;;;;;;5082095;28;20428;-79
2023/08/16 09:57:21;;;;;;;8.35;6.60;;;31.40;53.00;;;;;;5074964;28;20024;-79
2023/08/16 09:59:48;;;;;;;7.90;6.20;;;31.50;52.00;;;;;;5074126;28;20509;-79
2023/08/16 10:02:14;;;;;;;6.93;6.32;;;31.70;53.40;;;;;;5060051;28;20203;-79
2023/08/16 10:04:40;;;;;;;7.50;6.72;;;31.90;52.70;;;;;;5074980;28;20024;-78
2023/08/16 10:07:07;;;;;;;8.77;7.15;;;32.10;51.70;;;;;;5073809;28;20508;-79
2023/08/16 10:09:35;;;;;;;7.80;6.65;;;32.00;51.60;;;;;;5074891;28;20025;-79
2023/08/16 10:12:02;;;;;;;7.15;6.32;;;31.80;50.70;;;;;;5074335;28;20061;-74
2023/08/16 10:14:30;;;;;;;8.88;7.63;;;31.80;50.90;;;;;;5074216;28;20051;-74
2023/08/16 10:17:02;;;;;;;7.88;6.72;;;31.80;52.00;;;;;;5072522;28;20051;-78
2023/08/16 10:19:32;;;;;;;7.47;6.78;;;31.90;52.40;;;;;;5074212;28;20029;-79
2023/08/16 10:21:59;;;;;;;8.55;6.75;;;31.80;51.50;;;;;;5077483;28;20047;-74
2023/08/16 10:24:29;;;;;;;7.18;6.47;;;31.80;52.60;;;;;;5072052;28;20043;-74
2023/08/16 10:26:58;;;;;;;10.65;6.68;;;31.80;52.40;;;;;;5072914;28;20082;-78
2023/08/16 10:29:25;;;;;;;6.97;6.28;;;31.80;52.30;;;;;;5071268;28;20028;-79
2023/08/16 10:31:52;;;;;;;9.27;8.20;;;31.70;51.50;;;;;;5071585;28;20390;-78
2023/08/16 10:34:20;;;;;;;7.70;6.90;;;31.60;51.80;;;;;;5070061;28;20466;-74
2023/08/16 10:36:46;;;;;;;8.43;7.68;;;31.70;51.60;;;;;;5071434;28;20016;-78
2023/08/16 10:39:22;;;;;;;9.65;7.30;;;31.80;51.60;;;;;;5070517;28;20020;-78
2023/08/16 10:41:50;;;;;;;10.98;7.50;;;31.90;52.20;;;;;;5072699;28;20103;-78
2023/08/16 10:44:25;;;;;;;8.80;6.97;;;32.00;54.30;;;;;;5073140;28;20378;-78
2023/08/16 10:46:51;;;;;;;7.97;6.95;;;32.00;52.50;;;;;;5074574;28;20099;-75
2023/08/16 10:49:18;;;;;;;7.95;7.13;;;32.10;51.70;;;;;;5071782;28;20021;-74
2023/08/16 10:51:50;;;;;;;7.50;6.88;;;32.10;52.10;;;;;;5073045;28;20039;-78
2023/08/16 10:54:16;;;;;;;8.85;7.75;;;32.30;52.20;;;;;;5070197;28;20085;-77
2023/08/16 10:56:49;;;;;;;9.00;7.10;;;32.20;51.50;;;;;;5074119;28;20029;-74
2023/08/16 10:59:15;;;;;;;8.65;6.85;;;32.20;51.70;;;;;;5072696;28;20028;-74
2023/08/16 11:01:46;;;;;;;7.03;6.32;;;32.30;51.90;;;;;;5073878;28;20037;-74
2023/08/16 11:04:11;;;;;;;7.25;6.57;;;32.20;51.10;;;;;;5074144;28;20056;-78
2023/08/16 11:06:40;;;;;;;7.00;6.50;;;32.20;51.30;;;;;;5072495;28;20478;-78
2023/08/16 11:09:09;;;;;;;7.45;6.28;;;32.10;50.70;;;;;;5074032;28;20017;-74
2023/08/16 11:11:35;;;;;;;8.00;6.05;;;32.00;50.20;;;;;;5073640;28;20031;-78
2023/08/16 11:14:01;;;;;;;7.82;6.10;;;32.20;50.10;;;;;;5072609;28;20031;-77
2023/08/16 11:16:30;;;;;;;6.60;6.10;;;32.20;48.90;;;;;;5071556;28;20048;-77
2023/08/16 11:18:59;;;;;;;7.10;6.47;;;32.00;48.70;;;;;;5073665;28;20111;-74
2023/08/16 11:21:28;;;;;;;7.45;6.75;;;31.90;48.30;;;;;;5073636;28;20017;-78
2023/08/16 11:23:54;;;;;;;7.95;7.18;;;32.10;49.20;;;;;;5072364;28;20036;-78
2023/08/16 11:26:22;;;;;;;7.03;6.47;;;32.00;49.10;;;;;;5073071;28;20016;-77
2023/08/16 11:28:47;;;;;;;7.97;6.50;;;32.00;49.50;;;;;;5073525;28;20025;-74
2023/08/16 11:31:13;;;;;;;7.55;6.78;;;32.20;48.70;;;;;;5073229;28;20029;-78
2023/08/16 11:33:43;;;;;;;7.10;6.50;;;32.30;49.60;;;;;;5073338;28;20039;-73
2023/08/16 11:36:12;;;;;;;7.25;6.53;;;32.30;49.60;;;;;;5072216;28;20527;-74
2023/08/16 11:38:41;;;;;;;7.18;6.47;;;32.30;49.20;;;;;;5072646;28;20024;-78
2023/08/16 11:41:07;;;;;;;8.10;7.28;;;32.30;49.10;;;;;;5073113;28;20035;-78
2023/08/16 11:43:34;;;;;;;7.38;6.78;;;32.30;49.30;;;;;;5071050;28;20021;-73
2023/08/16 11:46:01;;;;;;;8.00;7.22;;;32.20;48.50;;;;;;5073162;28;20020;-74
2023/08/16 11:48:31;;;;;;;7.35;6.75;;;32.10;49.20;;;;;;5071570;28;20051;-73
2023/08/16 11:50:59;;;;;;;7.72;7.03;;;32.10;50.70;;;;;;5067275;28;20389;-78
2023/08/16 11:53:35;;;;;;;9.32;6.72;;;32.00;50.30;;;;;;5064445;28;20489;-78
2023/08/16 11:56:04;;;;;;;7.85;7.25;;;32.00;50.10;;;;;;5072669;28;20059;-78
2023/08/16 11:58:30;;;;;;;7.30;6.60;;;32.00;49.50;;;;;;5072587;28;20478;-74
2023/08/16 12:01:05;;;;;;;8.07;6.95;;;32.00;50.50;;;;;;5073084;28;20032;-78
2023/08/16 12:03:35;;;;;;;10.52;6.68;;;32.00;51.60;;;;;;5072667;28;20445;-78
2023/08/16 12:06:11;;;;;;;7.30;6.53;;;32.00;51.90;;;;;;5073275;28;20477;-74
2023/08/16 12:08:50;;;;;;;8.10;7.28;;;32.00;52.50;;;;;;5084103;28;20048;-78
2023/08/16 12:11:35;;;;;;;7.80;7.15;;;32.00;52.10;;;;;;5073250;28;20470;-74
2023/08/16 12:14:04;;;;;;;7.93;7.20;;;32.00;51.10;;;;;;5061029;28;20115;-74
2023/08/16 12:16:31;;;;;;;8.02;7.35;;;32.10;51.80;;;;;;5072714;28;20052;-74
2023/08/16 12:18:58;;;;;;;7.82;7.10;;;32.10;51.00;;;;;;5073008;28;20553;-74
2023/08/16 12:21:24;;;;;;;8.15;7.45;;;31.90;50.00;;;;;;5072645;28;20021;-74
2023/08/16 12:23:50;;;;;;;9.48;7.13;;;31.90;49.70;;;;;;5072790;28;20032;-74
2023/08/16 12:26:16;;;;;;;7.63;6.95;;;31.90;50.10;;;;;;5082072;28;20034;-73
2023/08/16 12:28:42;;;;;;;7.68;6.82;;;31.70;52.20;;;;;;5072852;28;20459;-73
2023/08/16 12:31:08;;;;;;;8.25;7.22;;;31.60;52.70;;;;;;5072887;28;20378;-79
2023/08/16 12:33:34;;;;;;;17.02;6.68;;;31.50;53.60;;;;;;5072779;28;20027;-78
2023/08/16 12:36:00;;;;;;;6.90;6.30;;;31.60;53.70;;;;;;5058697;28;20378;-74
2023/08/16 12:38:26;;;;;;;8.65;6.85;;;31.80;54.30;;;;;;5079233;28;20013;-74